Weather at Westosha Emergency Center Heliport

Public forecast

Using degrees Fahrenheit for public forecast. Weather courtesy of forecast.io.

Closest aviation weather report (METAR) to Westosha Emergency Center Heliport

Closest report is Burlington Municipal Airport, 10.7 nm (19.8 km) NNW. Retrieved 2021/06/13 10:15 UTC (0 seconds ago):

KBUU 131015Z AUTO 00000KT 10SM 13/12 A2998 RMK AO2 T01340115 PWINO

Closest aviation forecast (TAF) to Westosha Emergency Center Heliport

Closest forecast is Kenosha Regional Airport, 11.2 nm (20.7 km) ENE. Retrieved 2021/06/13 06:22 UTC (4 hours ago):

TAF KENW 130520Z 1306/1406 33004KT P6SM SKC FM131500 35007KT P6SM SKC FM131800 03006KT P6SM SKC FM132100 12007KT P6SM SKC FM140100 19003KT P6SM FEW150